sensor_id;sensor_type;location;lat;lon;timestamp;temperature;humidity
6724;DHT22;3399;52.530;13.304;2022-10-31T00:01:56;12.40;99.90
6724;DHT22;3399;52.530;13.304;2022-10-31T00:04:21;12.40;99.90
6724;DHT22;3399;52.530;13.304;2022-10-31T00:06:47;12.30;99.90
6724;DHT22;3399;52.530;13.304;2022-10-31T00:09:12;12.30;99.90
6724;DHT22;3399;52.530;13.304;2022-10-31T00:11:38;12.30;99.90
6724;DHT22;3399;52.530;13.304;2022-10-31T00:14:03;12.30;99.90
6724;DHT22;3399;52.530;13.304;2022-10-31T00:16:29;12.30;99.90
6724;DHT22;3399;52.530;13.304;2022-10-31T00:19:00;12.20;99.90
6724;DHT22;3399;52.530;13.304;2022-10-31T00:21:26;12.20;99.90
6724;DHT22;3399;52.530;13.304;2022-10-31T00:23:52;12.20;99.90
6724;DHT22;3399;52.530;13.304;2022-10-31T00:26:18;12.20;99.90
6724;DHT22;3399;52.530;13.304;2022-10-31T00:28:43;12.10;99.90
6724;DHT22;3399;52.530;13.304;2022-10-31T00:31:11;12.10;99.90
6724;DHT22;3399;52.530;13.304;2022-10-31T00:33:37;12.10;99.90
6724;DHT22;3399;52.530;13.304;2022-10-31T00:36:04;12.10;99.90
6724;DHT22;3399;52.530;13.304;2022-10-31T00:38:31;12.10;99.90
6724;DHT22;3399;52.530;13.304;2022-10-31T00:40:56;12.10;99.90
6724;DHT22;3399;52.530;13.304;2022-10-31T00:43:22;12.00;99.90
6724;DHT22;3399;52.530;13.304;2022-10-31T00:45:47;12.10;99.90
6724;DHT22;3399;52.530;13.304;2022-10-31T00:48:13;12.10;99.90
6724;DHT22;3399;52.530;13.304;2022-10-31T00:50:39;12.10;99.90
6724;DHT22;3399;52.530;13.304;2022-10-31T00:53:05;12.10;99.90
6724;DHT22;3399;52.530;13.304;2022-10-31T00:55:30;12.10;99.90
6724;DHT22;3399;52.530;13.304;2022-10-31T00:57:56;12.10;99.90
6724;DHT22;3399;52.530;13.304;2022-10-31T01:00:21;12.10;99.90
6724;DHT22;3399;52.530;13.304;2022-10-31T01:02:47;12.00;99.90
6724;DHT22;3399;52.530;13.304;2022-10-31T01:05:13;12.10;99.90
6724;DHT22;3399;52.530;13.304;2022-10-31T01:07:40;12.10;99.90
6724;DHT22;3399;52.530;13.304;2022-10-31T01:10:06;12.10;99.90
6724;DHT22;3399;52.530;13.304;2022-10-31T01:12:40;12.10;99.90
6724;DHT22;3399;52.530;13.304;2022-10-31T01:15:06;12.10;99.90
6724;DHT22;3399;52.530;13.304;2022-10-31T01:17:31;12.10;99.90
6724;DHT22;3399;52.530;13.304;2022-10-31T01:19:57;12.10;99.90
6724;DHT22;3399;52.530;13.304;2022-10-31T01:22:22;12.10;99.90
6724;DHT22;3399;52.530;13.304;2022-10-31T01:24:48;12.10;99.90
6724;DHT22;3399;52.530;13.304;2022-10-31T01:27:14;12.00;99.90
6724;DHT22;3399;52.530;13.304;2022-10-31T01:29:39;12.00;99.90
6724;DHT22;3399;52.530;13.304;2022-10-31T01:32:05;12.00;99.90
6724;DHT22;3399;52.530;13.304;2022-10-31T01:34:30;12.00;99.90
6724;DHT22;3399;52.530;13.304;2022-10-31T01:36:55;12.00;99.90
6724;DHT22;3399;52.530;13.304;2022-10-31T01:39:21;12.00;99.90
6724;DHT22;3399;52.530;13.304;2022-10-31T01:41:52;12.00;99.90
6724;DHT22;3399;52.530;13.304;2022-10-31T01:47:05;11.90;99.90
6724;DHT22;3399;52.530;13.304;2022-10-31T01:52:09;11.90;99.90
6724;DHT22;3399;52.530;13.304;2022-10-31T01:54:39;11.90;99.90
6724;DHT22;3399;52.530;13.304;2022-10-31T01:57:08;11.80;99.90
6724;DHT22;3399;52.530;13.304;2022-10-31T01:59:38;11.80;99.90
6724;DHT22;3399;52.530;13.304;2022-10-31T02:02:05;11.80;99.90
6724;DHT22;3399;52.530;13.304;2022-10-31T02:04:31;11.80;99.90
6724;DHT22;3399;52.530;13.304;2022-10-31T02:07:09;11.80;99.90
6724;DHT22;3399;52.530;13.304;2022-10-31T02:09:36;11.90;99.90
6724;DHT22;3399;52.530;13.304;2022-10-31T02:12:02;11.90;99.90
6724;DHT22;3399;52.530;13.304;2022-10-31T02:14:29;11.90;99.90
6724;DHT22;3399;52.530;13.304;2022-10-31T02:16:55;11.90;99.90
6724;DHT22;3399;52.530;13.304;2022-10-31T02:19:50;12.00;99.90
6724;DHT22;3399;52.530;13.304;2022-10-31T02:28:50;12.00;99.90
6724;DHT22;3399;52.530;13.304;2022-10-31T02:31:48;11.90;99.90
6724;DHT22;3399;52.530;13.304;2022-10-31T02:34:48;11.90;99.90
6724;DHT22;3399;52.530;13.304;2022-10-31T02:40:09;11.80;99.90
6724;DHT22;3399;52.530;13.304;2022-10-31T02:42:50;11.70;99.90
6724;DHT22;3399;52.530;13.304;2022-10-31T02:45:29;11.80;99.90
6724;DHT22;3399;52.530;13.304;2022-10-31T02:48:01;11.70;99.90
6724;DHT22;3399;52.530;13.304;2022-10-31T02:50:32;11.70;99.90
6724;DHT22;3399;52.530;13.304;2022-10-31T02:52:58;11.70;99.90
6724;DHT22;3399;52.530;13.304;2022-10-31T02:57:51;11.80;99.90
6724;DHT22;3399;52.530;13.304;2022-10-31T03:00:19;11.90;99.90
6724;DHT22;3399;52.530;13.304;2022-10-31T03:06:06;11.90;99.90
6724;DHT22;3399;52.530;13.304;2022-10-31T03:08:44;11.90;99.90
6724;DHT22;3399;52.530;13.304;2022-10-31T03:11:11;11.90;99.90
6724;DHT22;3399;52.530;13.304;2022-10-31T03:13:59;11.90;99.90
6724;DHT22;3399;52.530;13.304;2022-10-31T03:16:45;12.00;99.90
6724;DHT22;3399;52.530;13.304;2022-10-31T03:19:28;12.00;99.90
6724;DHT22;3399;52.530;13.304;2022-10-31T03:24:40;12.00;99.90
6724;DHT22;3399;52.530;13.304;2022-10-31T03:27:10;11.90;99.90
6724;DHT22;3399;52.530;13.304;2022-10-31T03:29:37;12.00;99.90
6724;DHT22;3399;52.530;13.304;2022-10-31T03:32:18;12.00;99.90
6724;DHT22;3399;52.530;13.304;2022-10-31T03:34:46;12.10;99.90
6724;DHT22;3399;52.530;13.304;2022-10-31T03:37:16;12.10;99.90
6724;DHT22;3399;52.530;13.304;2022-10-31T03:39:44;12.20;99.90
6724;DHT22;3399;52.530;13.304;2022-10-31T03:42:21;12.20;99.90
6724;DHT22;3399;52.530;13.304;2022-10-31T03:47:36;12.20;99.90
6724;DHT22;3399;52.530;13.304;2022-10-31T03:50:04;12.20;99.90
6724;DHT22;3399;52.530;13.304;2022-10-31T03:52:37;12.20;99.90
6724;DHT22;3399;52.530;13.304;2022-10-31T03:55:16;12.20;99.90
6724;DHT22;3399;52.530;13.304;2022-10-31T03:57:52;12.20;99.90
6724;DHT22;3399;52.530;13.304;2022-10-31T04:00:21;12.20;99.90
6724;DHT22;3399;52.530;13.304;2022-10-31T04:03:01;12.20;99.90
6724;DHT22;3399;52.530;13.304;2022-10-31T04:05:29;12.20;99.90
6724;DHT22;3399;52.530;13.304;2022-10-31T04:07:57;12.10;99.90
6724;DHT22;3399;52.530;13.304;2022-10-31T04:10:24;12.10;99.90
6724;DHT22;3399;52.530;13.304;2022-10-31T04:12:58;12.10;99.90
6724;DHT22;3399;52.530;13.304;2022-10-31T04:15:26;12.10;99.90
6724;DHT22;3399;52.530;13.304;2022-10-31T04:17:53;12.10;99.90
6724;DHT22;3399;52.530;13.304;2022-10-31T04:20:33;12.10;99.90
6724;DHT22;3399;52.530;13.304;2022-10-31T04:22:59;12.10;99.90
6724;DHT22;3399;52.530;13.304;2022-10-31T04:25:25;12.10;99.90
6724;DHT22;3399;52.530;13.304;2022-10-31T04:27:51;12.20;99.90
6724;DHT22;3399;52.530;13.304;2022-10-31T04:30:16;12.10;99.90
6724;DHT22;3399;52.530;13.304;2022-10-31T04:32:42;12.10;99.90
6724;DHT22;3399;52.530;13.304;2022-10-31T04:35:07;12.10;99.90
6724;DHT22;3399;52.530;13.304;2022-10-31T04:37:33;12.10;99.90
6724;DHT22;3399;52.530;13.304;2022-10-31T04:39:58;12.10;99.90
6724;DHT22;3399;52.530;13.304;2022-10-31T04:42:24;12.10;99.90
6724;DHT22;3399;52.530;13.304;2022-10-31T04:44:49;12.10;99.90
6724;DHT22;3399;52.530;13.304;2022-10-31T04:47:15;12.10;99.90
6724;DHT22;3399;52.530;13.304;2022-10-31T04:49:40;12.00;99.90
6724;DHT22;3399;52.530;13.304;2022-10-31T04:52:05;12.00;99.90
6724;DHT22;3399;52.530;13.304;2022-10-31T04:54:32;12.00;99.90
6724;DHT22;3399;52.530;13.304;2022-10-31T04:56:57;12.00;99.90
6724;DHT22;3399;52.530;13.304;2022-10-31T04:59:23;12.00;99.90
6724;DHT22;3399;52.530;13.304;2022-10-31T05:01:48;11.90;99.90
6724;DHT22;3399;52.530;13.304;2022-10-31T05:04:14;12.00;99.90
6724;DHT22;3399;52.530;13.304;2022-10-31T05:06:39;11.90;99.90
6724;DHT22;3399;52.530;13.304;2022-10-31T05:09:05;11.90;99.90
6724;DHT22;3399;52.530;13.304;2022-10-31T05:11:30;12.00;99.90
6724;DHT22;3399;52.530;13.304;2022-10-31T05:13:56;12.00;99.90
6724;DHT22;3399;52.530;13.304;2022-10-31T05:16:21;12.00;99.90
6724;DHT22;3399;52.530;13.304;2022-10-31T05:18:46;12.00;99.90
6724;DHT22;3399;52.530;13.304;2022-10-31T05:21:12;11.90;99.90
6724;DHT22;3399;52.530;13.304;2022-10-31T05:23:37;12.00;99.90
6724;DHT22;3399;52.530;13.304;2022-10-31T05:26:03;11.90;99.90
6724;DHT22;3399;52.530;13.304;2022-10-31T05:28:29;11.90;99.90
6724;DHT22;3399;52.530;13.304;2022-10-31T05:30:54;11.90;99.90
6724;DHT22;3399;52.530;13.304;2022-10-31T05:33:19;11.90;99.90
6724;DHT22;3399;52.530;13.304;2022-10-31T05:35:45;11.90;99.90
6724;DHT22;3399;52.530;13.304;2022-10-31T05:38:10;11.90;99.90
6724;DHT22;3399;52.530;13.304;2022-10-31T05:40:36;11.90;99.90
6724;DHT22;3399;52.530;13.304;2022-10-31T05:43:01;11.90;99.90
6724;DHT22;3399;52.530;13.304;2022-10-31T05:45:27;11.90;99.90
6724;DHT22;3399;52.530;13.304;2022-10-31T05:47:54;11.90;99.90
6724;DHT22;3399;52.530;13.304;2022-10-31T05:50:20;11.90;99.90
6724;DHT22;3399;52.530;13.304;2022-10-31T05:52:46;11.90;99.90
6724;DHT22;3399;52.530;13.304;2022-10-31T05:55:11;11.90;99.90
6724;DHT22;3399;52.530;13.304;2022-10-31T05:57:37;11.90;99.90
6724;DHT22;3399;52.530;13.304;2022-10-31T06:00:03;11.90;99.90
6724;DHT22;3399;52.530;13.304;2022-10-31T06:02:29;11.90;99.90
6724;DHT22;3399;52.530;13.304;2022-10-31T06:04:59;11.90;99.90
6724;DHT22;3399;52.530;13.304;2022-10-31T06:07:25;11.90;99.90
6724;DHT22;3399;52.530;13.304;2022-10-31T06:09:50;11.90;99.90
6724;DHT22;3399;52.530;13.304;2022-10-31T06:12:16;11.90;99.90
6724;DHT22;3399;52.530;13.304;2022-10-31T06:14:41;11.90;99.90
6724;DHT22;3399;52.530;13.304;2022-10-31T06:17:07;11.90;99.90
6724;DHT22;3399;52.530;13.304;2022-10-31T06:19:32;11.90;99.90
6724;DHT22;3399;52.530;13.304;2022-10-31T06:21:58;11.90;99.90
6724;DHT22;3399;52.530;13.304;2022-10-31T06:24:23;12.00;99.90
6724;DHT22;3399;52.530;13.304;2022-10-31T06:26:49;11.90;99.90
6724;DHT22;3399;52.530;13.304;2022-10-31T06:29:14;11.90;99.90
6724;DHT22;3399;52.530;13.304;2022-10-31T06:31:40;11.90;99.90
6724;DHT22;3399;52.530;13.304;2022-10-31T06:34:05;12.00;99.90
6724;DHT22;3399;52.530;13.304;2022-10-31T06:36:30;12.00;99.90
6724;DHT22;3399;52.530;13.304;2022-10-31T06:38:56;12.10;99.90
6724;DHT22;3399;52.530;13.304;2022-10-31T06:41:21;12.20;99.90
6724;DHT22;3399;52.530;13.304;2022-10-31T06:43:47;12.20;99.90
6724;DHT22;3399;52.530;13.304;2022-10-31T06:46:13;12.40;99.90
6724;DHT22;3399;52.530;13.304;2022-10-31T06:48:40;12.40;99.90
6724;DHT22;3399;52.530;13.304;2022-10-31T06:51:06;12.50;99.90
6724;DHT22;3399;52.530;13.304;2022-10-31T06:53:31;12.60;99.90
6724;DHT22;3399;52.530;13.304;2022-10-31T06:55:57;12.50;99.90
6724;DHT22;3399;52.530;13.304;2022-10-31T06:58:23;12.50;99.90
6724;DHT22;3399;52.530;13.304;2022-10-31T07:00:48;12.60;99.90
6724;DHT22;3399;52.530;13.304;2022-10-31T07:03:15;12.70;99.90
6724;DHT22;3399;52.530;13.304;2022-10-31T07:05:43;12.80;99.90
6724;DHT22;3399;52.530;13.304;2022-10-31T07:08:11;12.90;99.90
6724;DHT22;3399;52.530;13.304;2022-10-31T07:10:39;13.00;99.90
6724;DHT22;3399;52.530;13.304;2022-10-31T07:13:07;13.10;99.90
6724;DHT22;3399;52.530;13.304;2022-10-31T07:15:35;13.10;99.90
6724;DHT22;3399;52.530;13.304;2022-10-31T07:18:03;13.30;99.90
6724;DHT22;3399;52.530;13.304;2022-10-31T07:20:30;13.40;99.90
6724;DHT22;3399;52.530;13.304;2022-10-31T07:22:55;13.40;99.90
6724;DHT22;3399;52.530;13.304;2022-10-31T07:25:21;13.50;99.90
6724;DHT22;3399;52.530;13.304;2022-10-31T07:27:47;13.50;99.90
6724;DHT22;3399;52.530;13.304;2022-10-31T07:30:13;13.50;99.90
6724;DHT22;3399;52.530;13.304;2022-10-31T07:32:40;13.60;99.90
6724;DHT22;3399;52.530;13.304;2022-10-31T07:35:07;13.60;99.90
6724;DHT22;3399;52.530;13.304;2022-10-31T07:37:33;13.70;99.90
6724;DHT22;3399;52.530;13.304;2022-10-31T07:39:59;13.70;99.90
6724;DHT22;3399;52.530;13.304;2022-10-31T07:42:24;13.70;99.90
6724;DHT22;3399;52.530;13.304;2022-10-31T07:44:50;13.70;99.90
6724;DHT22;3399;52.530;13.304;2022-10-31T07:47:15;13.80;99.90
6724;DHT22;3399;52.530;13.304;2022-10-31T07:49:41;13.90;99.90
6724;DHT22;3399;52.530;13.304;2022-10-31T07:52:06;13.80;99.90
6724;DHT22;3399;52.530;13.304;2022-10-31T07:54:31;13.70;99.90
6724;DHT22;3399;52.530;13.304;2022-10-31T07:56:57;13.70;99.90
6724;DHT22;3399;52.530;13.304;2022-10-31T07:59:22;13.70;99.90
6724;DHT22;3399;52.530;13.304;2022-10-31T08:01:48;13.70;99.90
6724;DHT22;3399;52.530;13.304;2022-10-31T08:04:13;13.60;99.90
6724;DHT22;3399;52.530;13.304;2022-10-31T08:06:39;13.60;99.90
6724;DHT22;3399;52.530;13.304;2022-10-31T08:09:04;13.60;99.90
6724;DHT22;3399;52.530;13.304;2022-10-31T08:11:30;13.70;99.90
6724;DHT22;3399;52.530;13.304;2022-10-31T08:13:55;13.70;99.90
6724;DHT22;3399;52.530;13.304;2022-10-31T08:16:20;13.70;99.90
6724;DHT22;3399;52.530;13.304;2022-10-31T08:18:46;13.70;99.90
6724;DHT22;3399;52.530;13.304;2022-10-31T08:21:12;13.70;99.90
6724;DHT22;3399;52.530;13.304;2022-10-31T08:23:38;13.60;99.90
6724;DHT22;3399;52.530;13.304;2022-10-31T08:26:03;13.50;99.90
6724;DHT22;3399;52.530;13.304;2022-10-31T08:28:31;13.60;99.90
6724;DHT22;3399;52.530;13.304;2022-10-31T08:30:58;13.50;99.90
6724;DHT22;3399;52.530;13.304;2022-10-31T08:33:24;13.50;99.90
6724;DHT22;3399;52.530;13.304;2022-10-31T08:35:49;13.50;99.90
6724;DHT22;3399;52.530;13.304;2022-10-31T08:38:15;13.50;99.90
6724;DHT22;3399;52.530;13.304;2022-10-31T08:40:41;13.50;99.90
6724;DHT22;3399;52.530;13.304;2022-10-31T08:43:11;13.50;99.90
6724;DHT22;3399;52.530;13.304;2022-10-31T08:45:37;13.50;99.90
6724;DHT22;3399;52.530;13.304;2022-10-31T08:48:06;13.60;99.90
6724;DHT22;3399;52.530;13.304;2022-10-31T08:50:35;13.60;99.90
6724;DHT22;3399;52.530;13.304;2022-10-31T08:53:07;13.60;99.90
6724;DHT22;3399;52.530;13.304;2022-10-31T08:55:34;13.70;99.90
6724;DHT22;3399;52.530;13.304;2022-10-31T08:58:01;13.70;99.90
6724;DHT22;3399;52.530;13.304;2022-10-31T09:00:27;13.80;99.90
6724;DHT22;3399;52.530;13.304;2022-10-31T09:03:00;13.90;99.90
6724;DHT22;3399;52.530;13.304;2022-10-31T09:05:26;14.00;99.90
6724;DHT22;3399;52.530;13.304;2022-10-31T09:07:54;14.10;99.90
6724;DHT22;3399;52.530;13.304;2022-10-31T09:10:20;14.10;99.90
6724;DHT22;3399;52.530;13.304;2022-10-31T09:12:46;14.30;99.90
6724;DHT22;3399;52.530;13.304;2022-10-31T09:15:11;14.40;99.90
6724;DHT22;3399;52.530;13.304;2022-10-31T09:17:37;14.40;99.90
6724;DHT22;3399;52.530;13.304;2022-10-31T09:20:02;14.30;99.90
6724;DHT22;3399;52.530;13.304;2022-10-31T09:22:27;14.40;99.90
6724;DHT22;3399;52.530;13.304;2022-10-31T09:24:53;14.40;99.90
6724;DHT22;3399;52.530;13.304;2022-10-31T09:27:18;14.40;99.90
6724;DHT22;3399;52.530;13.304;2022-10-31T09:29:44;14.50;99.90
6724;DHT22;3399;52.530;13.304;2022-10-31T09:32:09;14.50;99.90
6724;DHT22;3399;52.530;13.304;2022-10-31T09:34:35;14.60;99.90
6724;DHT22;3399;52.530;13.304;2022-10-31T09:37:00;14.70;99.90
6724;DHT22;3399;52.530;13.304;2022-10-31T09:39:26;14.70;99.90
6724;DHT22;3399;52.530;13.304;2022-10-31T09:44:49;14.90;99.90
6724;DHT22;3399;52.530;13.304;2022-10-31T09:47:35;14.80;99.90
6724;DHT22;3399;52.530;13.304;2022-10-31T09:50:18;15.00;99.90
6724;DHT22;3399;52.530;13.304;2022-10-31T09:52:57;15.00;99.90
6724;DHT22;3399;52.530;13.304;2022-10-31T09:55:35;15.10;99.90
6724;DHT22;3399;52.530;13.304;2022-10-31T09:58:02;15.20;99.90
6724;DHT22;3399;52.530;13.304;2022-10-31T10:00:28;15.30;99.90
6724;DHT22;3399;52.530;13.304;2022-10-31T10:08:18;15.80;99.90
6724;DHT22;3399;52.530;13.304;2022-10-31T10:10:51;15.90;99.90
6724;DHT22;3399;52.530;13.304;2022-10-31T10:16:51;16.10;99.90
6724;DHT22;3399;52.530;13.304;2022-10-31T10:22:36;16.50;99.90
6724;DHT22;3399;52.530;13.304;2022-10-31T10:25:23;16.60;99.90
6724;DHT22;3399;52.530;13.304;2022-10-31T10:27:58;16.50;99.90
6724;DHT22;3399;52.530;13.304;2022-10-31T10:30:39;16.50;99.90
6724;DHT22;3399;52.530;13.304;2022-10-31T10:33:18;16.50;99.90
6724;DHT22;3399;52.530;13.304;2022-10-31T10:35:52;16.70;99.90
6724;DHT22;3399;52.530;13.304;2022-10-31T10:41:16;17.00;99.90
6724;DHT22;3399;52.530;13.304;2022-10-31T10:43:42;17.20;99.90
6724;DHT22;3399;52.530;13.304;2022-10-31T10:49:24;17.50;99.90
6724;DHT22;3399;52.530;13.304;2022-10-31T10:54:48;17.60;99.90
6724;DHT22;3399;52.530;13.304;2022-10-31T10:57:30;17.70;99.90
6724;DHT22;3399;52.530;13.304;2022-10-31T11:00:00;17.80;99.90
6724;DHT22;3399;52.530;13.304;2022-10-31T11:02:30;17.70;99.90
6724;DHT22;3399;52.530;13.304;2022-10-31T11:04:58;18.00;99.90
6724;DHT22;3399;52.530;13.304;2022-10-31T11:07:25;18.10;99.90
6724;DHT22;3399;52.530;13.304;2022-10-31T11:10:01;18.30;99.90
6724;DHT22;3399;52.530;13.304;2022-10-31T11:12:31;18.50;99.90
6724;DHT22;3399;52.530;13.304;2022-10-31T11:15:07;18.70;99.90
6724;DHT22;3399;52.530;13.304;2022-10-31T11:17:39;18.50;99.90
6724;DHT22;3399;52.530;13.304;2022-10-31T11:22:44;18.40;99.90
6724;DHT22;3399;52.530;13.304;2022-10-31T11:28:08;19.00;99.90
6724;DHT22;3399;52.530;13.304;2022-10-31T11:30:37;19.10;99.90
6724;DHT22;3399;52.530;13.304;2022-10-31T11:33:19;18.80;99.90
6724;DHT22;3399;52.530;13.304;2022-10-31T11:35:47;18.90;99.90
6724;DHT22;3399;52.530;13.304;2022-10-31T11:38:18;18.90;99.90
6724;DHT22;3399;52.530;13.304;2022-10-31T11:40:58;19.10;99.90
6724;DHT22;3399;52.530;13.304;2022-10-31T11:43:25;19.20;99.90
6724;DHT22;3399;52.530;13.304;2022-10-31T11:45:51;19.30;99.90
6724;DHT22;3399;52.530;13.304;2022-10-31T11:48:22;19.60;99.90
6724;DHT22;3399;52.530;13.304;2022-10-31T11:50:55;19.60;99.90
6724;DHT22;3399;52.530;13.304;2022-10-31T11:53:26;19.40;99.90
6724;DHT22;3399;52.530;13.304;2022-10-31T11:56:19;19.50;99.90
6724;DHT22;3399;52.530;13.304;2022-10-31T11:58:59;19.70;99.90
6724;DHT22;3399;52.530;13.304;2022-10-31T12:01:28;19.80;99.90
6724;DHT22;3399;52.530;13.304;2022-10-31T12:03:54;19.90;99.90
6724;DHT22;3399;52.530;13.304;2022-10-31T12:06:30;19.80;99.90
6724;DHT22;3399;52.530;13.304;2022-10-31T12:08:56;20.00;99.90
6724;DHT22;3399;52.530;13.304;2022-10-31T12:11:47;20.00;99.90
6724;DHT22;3399;52.530;13.304;2022-10-31T12:14:35;20.20;99.90
6724;DHT22;3399;52.530;13.304;2022-10-31T12:17:28;20.60;99.90
6724;DHT22;3399;52.530;13.304;2022-10-31T12:23:04;21.00;99.90
6724;DHT22;3399;52.530;13.304;2022-10-31T12:28:35;21.20;99.90
6724;DHT22;3399;52.530;13.304;2022-10-31T12:31:22;21.50;99.90
6724;DHT22;3399;52.530;13.304;2022-10-31T12:40:15;22.80;99.90
6724;DHT22;3399;52.530;13.304;2022-10-31T12:45:32;22.90;99.90
6724;DHT22;3399;52.530;13.304;2022-10-31T12:51:47;22.80;99.90
6724;DHT22;3399;52.530;13.304;2022-10-31T12:57:16;22.90;99.90
6724;DHT22;3399;52.530;13.304;2022-10-31T12:59:56;23.00;99.90
6724;DHT22;3399;52.530;13.304;2022-10-31T13:02:39;22.30;99.90
6724;DHT22;3399;52.530;13.304;2022-10-31T13:05:13;22.10;99.90
6724;DHT22;3399;52.530;13.304;2022-10-31T13:10:24;22.00;99.90
6724;DHT22;3399;52.530;13.304;2022-10-31T13:12:53;21.90;99.90
6724;DHT22;3399;52.530;13.304;2022-10-31T13:15:26;21.60;99.90
6724;DHT22;3399;52.530;13.304;2022-10-31T13:18:03;21.70;99.90
6724;DHT22;3399;52.530;13.304;2022-10-31T13:20:39;21.70;99.90
6724;DHT22;3399;52.530;13.304;2022-10-31T13:23:16;21.70;99.90
6724;DHT22;3399;52.530;13.304;2022-10-31T13:25:48;21.70;99.90
6724;DHT22;3399;52.530;13.304;2022-10-31T13:28:35;21.50;99.90
6724;DHT22;3399;52.530;13.304;2022-10-31T13:31:01;21.20;99.90
6724;DHT22;3399;52.530;13.304;2022-10-31T13:33:34;20.90;99.90
6724;DHT22;3399;52.530;13.304;2022-10-31T13:44:23;20.40;99.90
6724;DHT22;3399;52.530;13.304;2022-10-31T13:46:50;20.20;99.90
6724;DHT22;3399;52.530;13.304;2022-10-31T13:54:38;19.50;99.90
6724;DHT22;3399;52.530;13.304;2022-10-31T13:57:12;19.10;99.90
6724;DHT22;3399;52.530;13.304;2022-10-31T13:59:54;18.80;99.90
6724;DHT22;3399;52.530;13.304;2022-10-31T14:02:27;18.70;99.90
6724;DHT22;3399;52.530;13.304;2022-10-31T14:05:02;18.30;99.90
6724;DHT22;3399;52.530;13.304;2022-10-31T14:07:29;18.10;99.90
6724;DHT22;3399;52.530;13.304;2022-10-31T14:12:47;18.00;99.90
6724;DHT22;3399;52.530;13.304;2022-10-31T14:15:19;17.90;99.90
6724;DHT22;3399;52.530;13.304;2022-10-31T14:18:03;17.80;99.90
6724;DHT22;3399;52.530;13.304;2022-10-31T14:20:42;17.70;99.90
6724;DHT22;3399;52.530;13.304;2022-10-31T14:23:34;17.60;99.90
6724;DHT22;3399;52.530;13.304;2022-10-31T14:29:26;17.80;99.90
6724;DHT22;3399;52.530;13.304;2022-10-31T14:32:06;17.90;99.90
6724;DHT22;3399;52.530;13.304;2022-10-31T14:43:25;17.30;99.90
6724;DHT22;3399;52.530;13.304;2022-10-31T14:46:22;17.30;99.90
6724;DHT22;3399;52.530;13.304;2022-10-31T14:49:10;17.20;99.90
6724;DHT22;3399;52.530;13.304;2022-10-31T14:51:48;17.10;99.90
6724;DHT22;3399;52.530;13.304;2022-10-31T14:54:21;16.70;99.90
6724;DHT22;3399;52.530;13.304;2022-10-31T14:56:53;16.70;99.90
6724;DHT22;3399;52.530;13.304;2022-10-31T14:59:25;16.60;99.90
6724;DHT22;3399;52.530;13.304;2022-10-31T15:01:56;16.60;99.90
6724;DHT22;3399;52.530;13.304;2022-10-31T15:04:25;16.40;99.90
6724;DHT22;3399;52.530;13.304;2022-10-31T15:06:57;16.30;99.90
6724;DHT22;3399;52.530;13.304;2022-10-31T15:09:33;16.40;99.90
6724;DHT22;3399;52.530;13.304;2022-10-31T15:12:00;16.40;99.90
6724;DHT22;3399;52.530;13.304;2022-10-31T15:14:27;16.60;99.90
6724;DHT22;3399;52.530;13.304;2022-10-31T15:16:55;16.60;99.90
6724;DHT22;3399;52.530;13.304;2022-10-31T15:19:24;16.70;99.90
6724;DHT22;3399;52.530;13.304;2022-10-31T15:21:52;16.70;99.90
6724;DHT22;3399;52.530;13.304;2022-10-31T15:24:18;16.60;99.90
6724;DHT22;3399;52.530;13.304;2022-10-31T15:26:52;16.70;99.90
6724;DHT22;3399;52.530;13.304;2022-10-31T15:29:21;16.60;99.90
6724;DHT22;3399;52.530;13.304;2022-10-31T15:31:51;16.30;99.90
6724;DHT22;3399;52.530;13.304;2022-10-31T15:34:22;16.20;99.90
6724;DHT22;3399;52.530;13.304;2022-10-31T15:36:49;16.00;99.90
6724;DHT22;3399;52.530;13.304;2022-10-31T15:39:16;16.10;99.90
6724;DHT22;3399;52.530;13.304;2022-10-31T15:41:56;16.00;99.90
6724;DHT22;3399;52.530;13.304;2022-10-31T15:44:31;15.90;99.90
6724;DHT22;3399;52.530;13.304;2022-10-31T15:47:02;15.90;99.90
6724;DHT22;3399;52.530;13.304;2022-10-31T15:49:30;15.80;99.90
6724;DHT22;3399;52.530;13.304;2022-10-31T15:51:57;15.70;99.90
6724;DHT22;3399;52.530;13.304;2022-10-31T15:54:26;15.70;99.90
6724;DHT22;3399;52.530;13.304;2022-10-31T15:56:51;15.70;99.90
6724;DHT22;3399;52.530;13.304;2022-10-31T15:59:21;15.70;99.90
6724;DHT22;3399;52.530;13.304;2022-10-31T16:02:09;15.60;99.90
6724;DHT22;3399;52.530;13.304;2022-10-31T16:04:35;15.50;99.90
6724;DHT22;3399;52.530;13.304;2022-10-31T16:07:15;15.50;99.90
6724;DHT22;3399;52.530;13.304;2022-10-31T16:09:59;15.50;99.90
6724;DHT22;3399;52.530;13.304;2022-10-31T16:12:34;15.40;99.90
6724;DHT22;3399;52.530;13.304;2022-10-31T16:15:00;15.30;99.90
6724;DHT22;3399;52.530;13.304;2022-10-31T16:17:27;15.30;99.90
6724;DHT22;3399;52.530;13.304;2022-10-31T16:20:02;15.30;99.90
6724;DHT22;3399;52.530;13.304;2022-10-31T16:22:34;15.40;99.90
6724;DHT22;3399;52.530;13.304;2022-10-31T16:25:24;15.40;99.90
6724;DHT22;3399;52.530;13.304;2022-10-31T16:27:52;15.50;99.90
6724;DHT22;3399;52.530;13.304;2022-10-31T16:30:36;15.60;99.90
6724;DHT22;3399;52.530;13.304;2022-10-31T16:33:29;15.60;99.90
6724;DHT22;3399;52.530;13.304;2022-10-31T16:35:57;15.60;99.90
6724;DHT22;3399;52.530;13.304;2022-10-31T16:38:23;15.60;99.90
6724;DHT22;3399;52.530;13.304;2022-10-31T16:40:49;15.60;99.90
6724;DHT22;3399;52.530;13.304;2022-10-31T16:43:17;15.60;99.90
6724;DHT22;3399;52.530;13.304;2022-10-31T16:45:50;15.60;99.90
6724;DHT22;3399;52.530;13.304;2022-10-31T16:48:21;15.60;99.90
6724;DHT22;3399;52.530;13.304;2022-10-31T16:50:49;15.70;99.90
6724;DHT22;3399;52.530;13.304;2022-10-31T16:53:15;15.60;99.90
6724;DHT22;3399;52.530;13.304;2022-10-31T16:55:50;15.60;99.90
6724;DHT22;3399;52.530;13.304;2022-10-31T16:58:28;15.60;99.90
6724;DHT22;3399;52.530;13.304;2022-10-31T17:00:55;15.50;99.90
6724;DHT22;3399;52.530;13.304;2022-10-31T17:03:21;15.40;99.90
6724;DHT22;3399;52.530;13.304;2022-10-31T17:05:47;15.40;99.90
6724;DHT22;3399;52.530;13.304;2022-10-31T17:08:13;15.30;99.90
6724;DHT22;3399;52.530;13.304;2022-10-31T17:10:39;15.30;99.90
6724;DHT22;3399;52.530;13.304;2022-10-31T17:13:08;15.30;99.90
6724;DHT22;3399;52.530;13.304;2022-10-31T17:15:42;15.30;99.90
6724;DHT22;3399;52.530;13.304;2022-10-31T17:18:13;15.30;99.90
6724;DHT22;3399;52.530;13.304;2022-10-31T17:20:39;15.30;99.90
6724;DHT22;3399;52.530;13.304;2022-10-31T17:23:12;15.30;99.90
6724;DHT22;3399;52.530;13.304;2022-10-31T17:25:41;15.30;99.90
6724;DHT22;3399;52.530;13.304;2022-10-31T17:28:11;15.30;99.90
6724;DHT22;3399;52.530;13.304;2022-10-31T17:30:40;15.40;99.90
6724;DHT22;3399;52.530;13.304;2022-10-31T17:33:08;15.30;99.90
6724;DHT22;3399;52.530;13.304;2022-10-31T17:35:35;15.30;99.90
6724;DHT22;3399;52.530;13.304;2022-10-31T17:38:01;15.30;99.90
6724;DHT22;3399;52.530;13.304;2022-10-31T17:40:26;15.30;99.90
6724;DHT22;3399;52.530;13.304;2022-10-31T17:42:53;15.30;99.90
6724;DHT22;3399;52.530;13.304;2022-10-31T17:45:20;15.30;99.90
6724;DHT22;3399;52.530;13.304;2022-10-31T17:47:47;15.30;99.90
6724;DHT22;3399;52.530;13.304;2022-10-31T17:50:15;15.40;99.90